sensor_id;sensor_type;location;lat;lon;timestamp;P1;durP1;ratioP1;P2;durP2;ratioP2
18899;SDS011;9582;52.018;6.306;2024-03-29T00:01:50;2.33;;;0.97;;
18899;SDS011;9582;52.018;6.306;2024-03-29T00:04:15;4.83;;;1.00;;
18899;SDS011;9582;52.018;6.306;2024-03-29T00:06:41;4.00;;;1.30;;
18899;SDS011;9582;52.018;6.306;2024-03-29T00:09:07;4.70;;;1.17;;
18899;SDS011;9582;52.018;6.306;2024-03-29T00:11:32;3.00;;;0.70;;
18899;SDS011;9582;52.018;6.306;2024-03-29T00:13:58;3.43;;;1.13;;
18899;SDS011;9582;52.018;6.306;2024-03-29T00:16:25;2.27;;;0.80;;
18899;SDS011;9582;52.018;6.306;2024-03-29T00:18:51;3.03;;;0.80;;
18899;SDS011;9582;52.018;6.306;2024-03-29T00:21:17;2.17;;;0.80;;
18899;SDS011;9582;52.018;6.306;2024-03-29T00:23:43;2.60;;;1.00;;
18899;SDS011;9582;52.018;6.306;2024-03-29T00:26:09;4.20;;;0.87;;
18899;SDS011;9582;52.018;6.306;2024-03-29T00:28:34;2.13;;;1.10;;
18899;SDS011;9582;52.018;6.306;2024-03-29T00:31:00;2.83;;;1.03;;
18899;SDS011;9582;52.018;6.306;2024-03-29T00:33:27;2.70;;;0.90;;
18899;SDS011;9582;52.018;6.306;2024-03-29T00:35:53;1.83;;;0.80;;
18899;SDS011;9582;52.018;6.306;2024-03-29T00:38:18;1.87;;;0.90;;
18899;SDS011;9582;52.018;6.306;2024-03-29T00:40:44;4.43;;;1.10;;
18899;SDS011;9582;52.018;6.306;2024-03-29T00:43:10;3.23;;;0.90;;
18899;SDS011;9582;52.018;6.306;2024-03-29T00:45:36;4.67;;;0.80;;
18899;SDS011;9582;52.018;6.306;2024-03-29T00:48:02;1.37;;;0.83;;
18899;SDS011;9582;52.018;6.306;2024-03-29T00:50:29;2.10;;;0.80;;
18899;SDS011;9582;52.018;6.306;2024-03-29T00:52:55;2.63;;;0.97;;
18899;SDS011;9582;52.018;6.306;2024-03-29T00:55:21;5.03;;;1.03;;
18899;SDS011;9582;52.018;6.306;2024-03-29T00:57:47;1.87;;;0.80;;
18899;SDS011;9582;52.018;6.306;2024-03-29T01:00:13;3.37;;;1.00;;
18899;SDS011;9582;52.018;6.306;2024-03-29T01:02:39;1.77;;;0.90;;
18899;SDS011;9582;52.018;6.306;2024-03-29T01:05:05;4.33;;;0.87;;
18899;SDS011;9582;52.018;6.306;2024-03-29T01:07:33;2.73;;;1.00;;
18899;SDS011;9582;52.018;6.306;2024-03-29T01:09:59;3.40;;;1.23;;
18899;SDS011;9582;52.018;6.306;2024-03-29T01:12:24;3.50;;;0.93;;
18899;SDS011;9582;52.018;6.306;2024-03-29T01:14:50;3.23;;;1.00;;
18899;SDS011;9582;52.018;6.306;2024-03-29T01:17:16;3.80;;;0.90;;
18899;SDS011;9582;52.018;6.306;2024-03-29T01:19:41;2.20;;;0.90;;
18899;SDS011;9582;52.018;6.306;2024-03-29T01:22:07;3.20;;;1.05;;
18899;SDS011;9582;52.018;6.306;2024-03-29T01:24:34;4.43;;;1.00;;
18899;SDS011;9582;52.018;6.306;2024-03-29T01:27:00;3.37;;;1.00;;
18899;SDS011;9582;52.018;6.306;2024-03-29T01:29:26;2.27;;;0.87;;
18899;SDS011;9582;52.018;6.306;2024-03-29T01:31:52;1.77;;;0.70;;
18899;SDS011;9582;52.018;6.306;2024-03-29T01:34:18;2.23;;;0.80;;
18899;SDS011;9582;52.018;6.306;2024-03-29T01:36:44;2.47;;;0.97;;
18899;SDS011;9582;52.018;6.306;2024-03-29T01:39:10;1.93;;;0.87;;
18899;SDS011;9582;52.018;6.306;2024-03-29T01:41:37;1.57;;;0.70;;
18899;SDS011;9582;52.018;6.306;2024-03-29T01:44:03;2.27;;;0.80;;
18899;SDS011;9582;52.018;6.306;2024-03-29T01:46:30;3.73;;;1.00;;
18899;SDS011;9582;52.018;6.306;2024-03-29T01:48:58;2.70;;;0.80;;
18899;SDS011;9582;52.018;6.306;2024-03-29T01:51:25;1.63;;;0.80;;
18899;SDS011;9582;52.018;6.306;2024-03-29T01:53:52;3.40;;;1.23;;
18899;SDS011;9582;52.018;6.306;2024-03-29T01:56:21;2.83;;;1.00;;
18899;SDS011;9582;52.018;6.306;2024-03-29T01:58:51;3.30;;;0.87;;
18899;SDS011;9582;52.018;6.306;2024-03-29T02:01:18;2.13;;;0.77;;
18899;SDS011;9582;52.018;6.306;2024-03-29T02:03:45;1.60;;;0.77;;
18899;SDS011;9582;52.018;6.306;2024-03-29T02:06:13;2.20;;;0.80;;
18899;SDS011;9582;52.018;6.306;2024-03-29T02:08:41;2.80;;;0.67;;
18899;SDS011;9582;52.018;6.306;2024-03-29T02:11:07;1.70;;;0.80;;
18899;SDS011;9582;52.018;6.306;2024-03-29T02:13:34;2.63;;;0.90;;
18899;SDS011;9582;52.018;6.306;2024-03-29T02:16:01;3.70;;;0.97;;
18899;SDS011;9582;52.018;6.306;2024-03-29T02:18:28;2.63;;;0.80;;
18899;SDS011;9582;52.018;6.306;2024-03-29T02:20:55;2.27;;;0.90;;
18899;SDS011;9582;52.018;6.306;2024-03-29T02:23:23;5.00;;;0.90;;
18899;SDS011;9582;52.018;6.306;2024-03-29T02:25:54;2.73;;;0.77;;
18899;SDS011;9582;52.018;6.306;2024-03-29T02:28:21;3.43;;;0.93;;
18899;SDS011;9582;52.018;6.306;2024-03-29T02:30:49;3.23;;;0.90;;
18899;SDS011;9582;52.018;6.306;2024-03-29T02:33:17;1.17;;;0.80;;
18899;SDS011;9582;52.018;6.306;2024-03-29T02:35:43;4.80;;;0.90;;
18899;SDS011;9582;52.018;6.306;2024-03-29T02:38:10;3.60;;;1.10;;
18899;SDS011;9582;52.018;6.306;2024-03-29T02:40:37;2.17;;;0.77;;
18899;SDS011;9582;52.018;6.306;2024-03-29T02:43:05;1.27;;;0.70;;
18899;SDS011;9582;52.018;6.306;2024-03-29T02:45:32;1.90;;;0.70;;
18899;SDS011;9582;52.018;6.306;2024-03-29T02:48:00;2.27;;;0.80;;
18899;SDS011;9582;52.018;6.306;2024-03-29T02:50:25;2.27;;;0.80;;
18899;SDS011;9582;52.018;6.306;2024-03-29T02:52:52;2.23;;;0.80;;
18899;SDS011;9582;52.018;6.306;2024-03-29T02:55:17;1.43;;;0.87;;
18899;SDS011;9582;52.018;6.306;2024-03-29T02:57:44;2.90;;;1.27;;
18899;SDS011;9582;52.018;6.306;2024-03-29T03:00:12;3.67;;;1.43;;
18899;SDS011;9582;52.018;6.306;2024-03-29T03:02:39;4.80;;;0.97;;
18899;SDS011;9582;52.018;6.306;2024-03-29T03:05:06;2.70;;;0.60;;
18899;SDS011;9582;52.018;6.306;2024-03-29T03:07:34;3.23;;;0.90;;
18899;SDS011;9582;52.018;6.306;2024-03-29T03:10:18;3.40;;;1.17;;
18899;SDS011;9582;52.018;6.306;2024-03-29T03:13:02;2.13;;;0.90;;
18899;SDS011;9582;52.018;6.306;2024-03-29T03:15:31;2.67;;;1.00;;
18899;SDS011;9582;52.018;6.306;2024-03-29T03:17:57;1.37;;;0.60;;
18899;SDS011;9582;52.018;6.306;2024-03-29T03:20:23;2.23;;;0.90;;
18899;SDS011;9582;52.018;6.306;2024-03-29T03:22:53;4.40;;;0.90;;
18899;SDS011;9582;52.018;6.306;2024-03-29T03:25:18;2.90;;;0.93;;
18899;SDS011;9582;52.018;6.306;2024-03-29T03:27:45;5.40;;;0.80;;
18899;SDS011;9582;52.018;6.306;2024-03-29T03:30:12;3.23;;;0.80;;
18899;SDS011;9582;52.018;6.306;2024-03-29T03:32:40;3.13;;;0.80;;
18899;SDS011;9582;52.018;6.306;2024-03-29T03:35:06;3.60;;;0.80;;
18899;SDS011;9582;52.018;6.306;2024-03-29T03:37:33;3.60;;;0.97;;
18899;SDS011;9582;52.018;6.306;2024-03-29T03:39:58;2.33;;;0.70;;
18899;SDS011;9582;52.018;6.306;2024-03-29T03:42:25;1.17;;;0.57;;
18899;SDS011;9582;52.018;6.306;2024-03-29T03:44:50;2.37;;;1.00;;
18899;SDS011;9582;52.018;6.306;2024-03-29T03:47:17;3.03;;;1.17;;
18899;SDS011;9582;52.018;6.306;2024-03-29T03:49:44;2.97;;;0.80;;
18899;SDS011;9582;52.018;6.306;2024-03-29T03:52:11;4.23;;;1.53;;
18899;SDS011;9582;52.018;6.306;2024-03-29T03:54:36;3.03;;;0.90;;
18899;SDS011;9582;52.018;6.306;2024-03-29T03:57:04;2.80;;;1.20;;
18899;SDS011;9582;52.018;6.306;2024-03-29T03:59:30;1.97;;;0.90;;
18899;SDS011;9582;52.018;6.306;2024-03-29T04:01:57;4.63;;;1.10;;
18899;SDS011;9582;52.018;6.306;2024-03-29T04:04:22;4.63;;;1.03;;
18899;SDS011;9582;52.018;6.306;2024-03-29T04:06:50;2.97;;;1.00;;
18899;SDS011;9582;52.018;6.306;2024-03-29T04:09:16;3.47;;;1.10;;
18899;SDS011;9582;52.018;6.306;2024-03-29T04:11:42;3.63;;;0.77;;
18899;SDS011;9582;52.018;6.306;2024-03-29T04:14:08;2.77;;;0.90;;
18899;SDS011;9582;52.018;6.306;2024-03-29T04:16:35;2.70;;;0.80;;
18899;SDS011;9582;52.018;6.306;2024-03-29T04:19:00;4.43;;;1.00;;
18899;SDS011;9582;52.018;6.306;2024-03-29T04:21:27;2.57;;;0.90;;
18899;SDS011;9582;52.018;6.306;2024-03-29T04:23:54;3.13;;;0.77;;
18899;SDS011;9582;52.018;6.306;2024-03-29T04:26:21;2.97;;;0.90;;
18899;SDS011;9582;52.018;6.306;2024-03-29T04:28:47;2.37;;;0.80;;
18899;SDS011;9582;52.018;6.306;2024-03-29T04:31:14;2.13;;;1.10;;
18899;SDS011;9582;52.018;6.306;2024-03-29T04:33:39;1.70;;;1.00;;
18899;SDS011;9582;52.018;6.306;2024-03-29T04:36:06;3.03;;;1.00;;
18899;SDS011;9582;52.018;6.306;2024-03-29T04:38:32;1.77;;;0.80;;
18899;SDS011;9582;52.018;6.306;2024-03-29T04:41:00;4.70;;;1.20;;
18899;SDS011;9582;52.018;6.306;2024-03-29T04:43:27;2.03;;;0.80;;
18899;SDS011;9582;52.018;6.306;2024-03-29T04:46:01;2.43;;;1.20;;
18899;SDS011;9582;52.018;6.306;2024-03-29T04:48:29;3.67;;;1.03;;
18899;SDS011;9582;52.018;6.306;2024-03-29T04:50:56;4.00;;;1.17;;
18899;SDS011;9582;52.018;6.306;2024-03-29T04:53:22;2.20;;;1.03;;
18899;SDS011;9582;52.018;6.306;2024-03-29T04:55:52;3.77;;;1.03;;
18899;SDS011;9582;52.018;6.306;2024-03-29T04:58:21;2.87;;;1.00;;
18899;SDS011;9582;52.018;6.306;2024-03-29T05:00:48;3.60;;;1.27;;
18899;SDS011;9582;52.018;6.306;2024-03-29T05:03:16;3.83;;;1.17;;
18899;SDS011;9582;52.018;6.306;2024-03-29T05:05:43;2.00;;;1.10;;
18899;SDS011;9582;52.018;6.306;2024-03-29T05:08:09;3.70;;;1.33;;
18899;SDS011;9582;52.018;6.306;2024-03-29T05:10:36;2.53;;;1.10;;
18899;SDS011;9582;52.018;6.306;2024-03-29T05:13:03;3.43;;;1.10;;
18899;SDS011;9582;52.018;6.306;2024-03-29T05:15:31;3.37;;;1.20;;
18899;SDS011;9582;52.018;6.306;2024-03-29T05:17:58;3.73;;;0.93;;
18899;SDS011;9582;52.018;6.306;2024-03-29T05:20:25;3.03;;;0.90;;
18899;SDS011;9582;52.018;6.306;2024-03-29T05:22:51;2.80;;;0.90;;
18899;SDS011;9582;52.018;6.306;2024-03-29T05:25:18;2.83;;;0.87;;
18899;SDS011;9582;52.018;6.306;2024-03-29T05:27:45;1.53;;;1.00;;
18899;SDS011;9582;52.018;6.306;2024-03-29T05:30:12;3.67;;;1.00;;
18899;SDS011;9582;52.018;6.306;2024-03-29T05:32:40;2.80;;;1.07;;
18899;SDS011;9582;52.018;6.306;2024-03-29T05:35:06;2.70;;;0.80;;
18899;SDS011;9582;52.018;6.306;2024-03-29T05:37:34;3.10;;;1.00;;
18899;SDS011;9582;52.018;6.306;2024-03-29T05:40:01;2.40;;;0.90;;
18899;SDS011;9582;52.018;6.306;2024-03-29T05:42:30;4.50;;;1.37;;
18899;SDS011;9582;52.018;6.306;2024-03-29T05:44:58;4.30;;;0.90;;
18899;SDS011;9582;52.018;6.306;2024-03-29T05:47:25;2.70;;;1.20;;
18899;SDS011;9582;52.018;6.306;2024-03-29T05:49:53;1.87;;;0.87;;
18899;SDS011;9582;52.018;6.306;2024-03-29T05:52:20;6.20;;;1.10;;
18899;SDS011;9582;52.018;6.306;2024-03-29T05:54:48;3.63;;;1.23;;
18899;SDS011;9582;52.018;6.306;2024-03-29T05:57:15;1.53;;;0.87;;
18899;SDS011;9582;52.018;6.306;2024-03-29T05:59:42;2.57;;;1.03;;
18899;SDS011;9582;52.018;6.306;2024-03-29T06:02:08;3.50;;;0.93;;
18899;SDS011;9582;52.018;6.306;2024-03-29T06:04:35;3.60;;;1.10;;
18899;SDS011;9582;52.018;6.306;2024-03-29T06:07:04;2.90;;;1.20;;
18899;SDS011;9582;52.018;6.306;2024-03-29T06:09:33;2.30;;;0.97;;
18899;SDS011;9582;52.018;6.306;2024-03-29T06:12:00;3.53;;;1.27;;
18899;SDS011;9582;52.018;6.306;2024-03-29T06:14:26;3.27;;;1.10;;
18899;SDS011;9582;52.018;6.306;2024-03-29T06:17:10;3.10;;;1.10;;
18899;SDS011;9582;52.018;6.306;2024-03-29T06:19:49;3.40;;;1.27;;
18899;SDS011;9582;52.018;6.306;2024-03-29T06:22:17;3.93;;;0.97;;
18899;SDS011;9582;52.018;6.306;2024-03-29T06:24:44;2.00;;;0.90;;
18899;SDS011;9582;52.018;6.306;2024-03-29T06:27:12;4.10;;;1.20;;
18899;SDS011;9582;52.018;6.306;2024-03-29T06:29:41;2.40;;;0.90;;
18899;SDS011;9582;52.018;6.306;2024-03-29T06:32:08;2.60;;;1.30;;
18899;SDS011;9582;52.018;6.306;2024-03-29T06:34:34;2.53;;;1.20;;
18899;SDS011;9582;52.018;6.306;2024-03-29T06:37:01;2.80;;;1.10;;
18899;SDS011;9582;52.018;6.306;2024-03-29T06:39:29;3.07;;;1.40;;
18899;SDS011;9582;52.018;6.306;2024-03-29T06:41:56;1.43;;;0.97;;
18899;SDS011;9582;52.018;6.306;2024-03-29T06:44:22;4.07;;;1.27;;
18899;SDS011;9582;52.018;6.306;2024-03-29T06:46:50;2.13;;;1.30;;
18899;SDS011;9582;52.018;6.306;2024-03-29T06:49:16;4.20;;;1.27;;
18899;SDS011;9582;52.018;6.306;2024-03-29T06:51:43;2.40;;;1.03;;
18899;SDS011;9582;52.018;6.306;2024-03-29T06:54:10;3.20;;;1.10;;
18899;SDS011;9582;52.018;6.306;2024-03-29T06:56:38;2.43;;;0.97;;
18899;SDS011;9582;52.018;6.306;2024-03-29T06:59:04;2.77;;;1.20;;
18899;SDS011;9582;52.018;6.306;2024-03-29T07:01:31;1.50;;;0.80;;
18899;SDS011;9582;52.018;6.306;2024-03-29T07:03:57;1.37;;;0.97;;
18899;SDS011;9582;52.018;6.306;2024-03-29T07:06:24;2.73;;;1.10;;
18899;SDS011;9582;52.018;6.306;2024-03-29T07:08:51;1.87;;;1.00;;
18899;SDS011;9582;52.018;6.306;2024-03-29T07:11:18;3.47;;;1.10;;
18899;SDS011;9582;52.018;6.306;2024-03-29T07:13:46;1.27;;;0.90;;
18899;SDS011;9582;52.018;6.306;2024-03-29T07:16:12;3.13;;;1.20;;
18899;SDS011;9582;52.018;6.306;2024-03-29T07:18:39;3.03;;;1.30;;
18899;SDS011;9582;52.018;6.306;2024-03-29T07:21:05;6.53;;;1.53;;
18899;SDS011;9582;52.018;6.306;2024-03-29T07:23:32;2.77;;;1.20;;
18899;SDS011;9582;52.018;6.306;2024-03-29T07:25:59;2.83;;;1.37;;
18899;SDS011;9582;52.018;6.306;2024-03-29T07:28:27;2.70;;;1.07;;
18899;SDS011;9582;52.018;6.306;2024-03-29T07:30:54;3.23;;;1.40;;
18899;SDS011;9582;52.018;6.306;2024-03-29T07:33:21;4.40;;;1.30;;
18899;SDS011;9582;52.018;6.306;2024-03-29T07:35:51;2.33;;;1.10;;
18899;SDS011;9582;52.018;6.306;2024-03-29T07:38:18;2.73;;;1.20;;
18899;SDS011;9582;52.018;6.306;2024-03-29T07:40:45;1.87;;;1.30;;
18899;SDS011;9582;52.018;6.306;2024-03-29T07:43:13;5.37;;;1.90;;
18899;SDS011;9582;52.018;6.306;2024-03-29T07:45:40;3.40;;;1.30;;
18899;SDS011;9582;52.018;6.306;2024-03-29T07:48:10;3.43;;;1.40;;
18899;SDS011;9582;52.018;6.306;2024-03-29T07:50:38;3.40;;;1.53;;
18899;SDS011;9582;52.018;6.306;2024-03-29T07:53:05;4.80;;;1.67;;
18899;SDS011;9582;52.018;6.306;2024-03-29T07:55:31;3.57;;;1.70;;
18899;SDS011;9582;52.018;6.306;2024-03-29T07:57:58;3.60;;;2.10;;
18899;SDS011;9582;52.018;6.306;2024-03-29T08:00:25;3.90;;;1.80;;
18899;SDS011;9582;52.018;6.306;2024-03-29T08:02:52;4.20;;;1.77;;
18899;SDS011;9582;52.018;6.306;2024-03-29T08:05:20;3.63;;;1.87;;
18899;SDS011;9582;52.018;6.306;2024-03-29T08:07:47;8.07;;;1.93;;
18899;SDS011;9582;52.018;6.306;2024-03-29T08:10:14;6.53;;;2.37;;
18899;SDS011;9582;52.018;6.306;2024-03-29T08:12:41;3.80;;;1.70;;
18899;SDS011;9582;52.018;6.306;2024-03-29T08:15:08;4.60;;;1.70;;
18899;SDS011;9582;52.018;6.306;2024-03-29T08:17:35;3.47;;;2.30;;
18899;SDS011;9582;52.018;6.306;2024-03-29T08:20:02;2.73;;;1.83;;
18899;SDS011;9582;52.018;6.306;2024-03-29T08:22:31;6.53;;;2.17;;
18899;SDS011;9582;52.018;6.306;2024-03-29T08:24:58;3.23;;;1.80;;
18899;SDS011;9582;52.018;6.306;2024-03-29T08:27:25;3.83;;;2.27;;
18899;SDS011;9582;52.018;6.306;2024-03-29T08:29:52;3.30;;;2.23;;
18899;SDS011;9582;52.018;6.306;2024-03-29T08:32:19;4.63;;;2.20;;
18899;SDS011;9582;52.018;6.306;2024-03-29T08:34:45;5.07;;;2.20;;
18899;SDS011;9582;52.018;6.306;2024-03-29T08:37:12;3.80;;;2.00;;
18899;SDS011;9582;52.018;6.306;2024-03-29T08:39:40;5.57;;;2.00;;
18899;SDS011;9582;52.018;6.306;2024-03-29T08:42:07;4.20;;;2.37;;
18899;SDS011;9582;52.018;6.306;2024-03-29T08:44:36;4.90;;;2.13;;
18899;SDS011;9582;52.018;6.306;2024-03-29T08:47:03;4.17;;;2.23;;
18899;SDS011;9582;52.018;6.306;2024-03-29T08:49:30;2.87;;;2.40;;
18899;SDS011;9582;52.018;6.306;2024-03-29T08:51:57;6.90;;;2.60;;
18899;SDS011;9582;52.018;6.306;2024-03-29T08:54:25;6.30;;;2.37;;
18899;SDS011;9582;52.018;6.306;2024-03-29T08:56:55;7.20;;;2.57;;
18899;SDS011;9582;52.018;6.306;2024-03-29T08:59:22;7.43;;;2.73;;
18899;SDS011;9582;52.018;6.306;2024-03-29T09:01:49;5.20;;;2.10;;
18899;SDS011;9582;52.018;6.306;2024-03-29T09:04:18;5.80;;;2.87;;
18899;SDS011;9582;52.018;6.306;2024-03-29T09:06:45;3.53;;;1.97;;
18899;SDS011;9582;52.018;6.306;2024-03-29T09:09:12;5.40;;;2.23;;
18899;SDS011;9582;52.018;6.306;2024-03-29T09:11:38;6.40;;;2.23;;
18899;SDS011;9582;52.018;6.306;2024-03-29T09:14:07;3.13;;;2.20;;
18899;SDS011;9582;52.018;6.306;2024-03-29T09:16:34;6.83;;;2.17;;
18899;SDS011;9582;52.018;6.306;2024-03-29T09:19:01;7.13;;;2.30;;
18899;SDS011;9582;52.018;6.306;2024-03-29T09:21:30;5.37;;;2.17;;
18899;SDS011;9582;52.018;6.306;2024-03-29T09:23:56;4.20;;;2.50;;
18899;SDS011;9582;52.018;6.306;2024-03-29T09:26:23;4.30;;;2.37;;
18899;SDS011;9582;52.018;6.306;2024-03-29T09:28:49;4.47;;;2.30;;
18899;SDS011;9582;52.018;6.306;2024-03-29T09:31:17;2.77;;;2.00;;
18899;SDS011;9582;52.018;6.306;2024-03-29T09:33:44;3.43;;;2.33;;
18899;SDS011;9582;52.018;6.306;2024-03-29T09:36:12;7.33;;;2.50;;
18899;SDS011;9582;52.018;6.306;2024-03-29T09:38:39;4.57;;;2.40;;
18899;SDS011;9582;52.018;6.306;2024-03-29T09:41:07;5.87;;;2.33;;
18899;SDS011;9582;52.018;6.306;2024-03-29T09:43:39;4.05;;;2.05;;
18899;SDS011;9582;52.018;6.306;2024-03-29T09:46:10;3.50;;;2.25;;
18899;SDS011;9582;52.018;6.306;2024-03-29T09:48:39;4.53;;;2.42;;
18899;SDS011;9582;52.018;6.306;2024-03-29T09:51:06;2.90;;;1.90;;
18899;SDS011;9582;52.018;6.306;2024-03-29T09:53:34;4.27;;;1.80;;
18899;SDS011;9582;52.018;6.306;2024-03-29T09:56:02;4.00;;;1.90;;
18899;SDS011;9582;52.018;6.306;2024-03-29T09:58:30;4.32;;;1.75;;
18899;SDS011;9582;52.018;6.306;2024-03-29T10:00:56;5.28;;;2.08;;
18899;SDS011;9582;52.018;6.306;2024-03-29T10:03:23;4.22;;;1.80;;
18899;SDS011;9582;52.018;6.306;2024-03-29T10:05:56;4.33;;;2.20;;
18899;SDS011;9582;52.018;6.306;2024-03-29T10:08:23;3.40;;;1.90;;
18899;SDS011;9582;52.018;6.306;2024-03-29T10:10:52;5.75;;;1.98;;
18899;SDS011;9582;52.018;6.306;2024-03-29T10:13:20;3.90;;;2.10;;
18899;SDS011;9582;52.018;6.306;2024-03-29T10:15:48;3.70;;;1.80;;
18899;SDS011;9582;52.018;6.306;2024-03-29T10:18:15;3.50;;;2.00;;
18899;SDS011;9582;52.018;6.306;2024-03-29T10:20:43;5.20;;;1.90;;
18899;SDS011;9582;52.018;6.306;2024-03-29T10:23:11;3.15;;;1.90;;
18899;SDS011;9582;52.018;6.306;2024-03-29T10:25:38;2.42;;;2.13;;
18899;SDS011;9582;52.018;6.306;2024-03-29T10:28:05;4.80;;;2.10;;
18899;SDS011;9582;52.018;6.306;2024-03-29T10:30:32;2.97;;;2.13;;
18899;SDS011;9582;52.018;6.306;2024-03-29T10:33:00;1.85;;;1.60;;
18899;SDS011;9582;52.018;6.306;2024-03-29T10:35:26;2.65;;;1.83;;
18899;SDS011;9582;52.018;6.306;2024-03-29T10:37:53;5.43;;;1.98;;
18899;SDS011;9582;52.018;6.306;2024-03-29T10:40:22;2.72;;;2.00;;
18899;SDS011;9582;52.018;6.306;2024-03-29T10:42:50;2.95;;;1.83;;
18899;SDS011;9582;52.018;6.306;2024-03-29T10:45:18;2.78;;;1.83;;
18899;SDS011;9582;52.018;6.306;2024-03-29T10:47:48;2.83;;;2.05;;
18899;SDS011;9582;52.018;6.306;2024-03-29T10:50:15;3.45;;;2.00;;
18899;SDS011;9582;52.018;6.306;2024-03-29T10:52:46;2.35;;;2.05;;
18899;SDS011;9582;52.018;6.306;2024-03-29T10:55:15;2.65;;;1.70;;
18899;SDS011;9582;52.018;6.306;2024-03-29T10:57:43;4.05;;;2.33;;
18899;SDS011;9582;52.018;6.306;2024-03-29T11:00:13;3.88;;;2.00;;
18899;SDS011;9582;52.018;6.306;2024-03-29T11:02:47;3.88;;;1.95;;
18899;SDS011;9582;52.018;6.306;2024-03-29T11:05:16;1.88;;;1.58;;
18899;SDS011;9582;52.018;6.306;2024-03-29T11:07:43;3.45;;;1.98;;
18899;SDS011;9582;52.018;6.306;2024-03-29T11:10:13;2.25;;;1.83;;
18899;SDS011;9582;52.018;6.306;2024-03-29T11:12:47;3.45;;;1.88;;
18899;SDS011;9582;52.018;6.306;2024-03-29T11:15:24;2.05;;;1.42;;
18899;SDS011;9582;52.018;6.306;2024-03-29T11:17:55;2.30;;;1.58;;
18899;SDS011;9582;52.018;6.306;2024-03-29T11:20:22;2.45;;;1.83;;
18899;SDS011;9582;52.018;6.306;2024-03-29T11:22:58;3.65;;;1.80;;
18899;SDS011;9582;52.018;6.306;2024-03-29T11:25:36;1.70;;;1.60;;
18899;SDS011;9582;52.018;6.306;2024-03-29T11:28:06;2.97;;;1.40;;
18899;SDS011;9582;52.018;6.306;2024-03-29T11:30:39;1.98;;;1.58;;
18899;SDS011;9582;52.018;6.306;2024-03-29T11:33:06;2.10;;;1.30;;
18899;SDS011;9582;52.018;6.306;2024-03-29T11:35:37;1.77;;;1.63;;
18899;SDS011;9582;52.018;6.306;2024-03-29T11:38:06;2.50;;;1.60;;
18899;SDS011;9582;52.018;6.306;2024-03-29T11:40:32;2.08;;;1.48;;
18899;SDS011;9582;52.018;6.306;2024-03-29T11:42:59;4.18;;;1.60;;
18899;SDS011;9582;52.018;6.306;2024-03-29T11:45:27;2.30;;;1.40;;
18899;SDS011;9582;52.018;6.306;2024-03-29T11:47:55;2.08;;;1.50;;
18899;SDS011;9582;52.018;6.306;2024-03-29T11:50:26;3.45;;;1.48;;
18899;SDS011;9582;52.018;6.306;2024-03-29T11:52:53;3.00;;;1.73;;
18899;SDS011;9582;52.018;6.306;2024-03-29T11:55:19;2.28;;;1.35;;
18899;SDS011;9582;52.018;6.306;2024-03-29T11:57:47;1.40;;;1.27;;
18899;SDS011;9582;52.018;6.306;2024-03-29T12:00:14;2.85;;;1.38;;
18899;SDS011;9582;52.018;6.306;2024-03-29T12:02:43;1.33;;;1.00;;
18899;SDS011;9582;52.018;6.306;2024-03-29T12:05:09;2.65;;;1.58;;
18899;SDS011;9582;52.018;6.306;2024-03-29T12:07:37;2.15;;;1.20;;
18899;SDS011;9582;52.018;6.306;2024-03-29T12:10:04;2.08;;;1.10;;
18899;SDS011;9582;52.018;6.306;2024-03-29T12:12:36;1.40;;;1.20;;
18899;SDS011;9582;52.018;6.306;2024-03-29T12:15:03;1.95;;;0.90;;
18899;SDS011;9582;52.018;6.306;2024-03-29T12:17:30;0.82;;;0.80;;
18899;SDS011;9582;52.018;6.306;2024-03-29T12:19:59;1.95;;;1.10;;
18899;SDS011;9582;52.018;6.306;2024-03-29T12:22:30;1.55;;;1.10;;
18899;SDS011;9582;52.018;6.306;2024-03-29T12:24:57;1.25;;;1.10;;
18899;SDS011;9582;52.018;6.306;2024-03-29T12:27:24;1.10;;;1.00;;
18899;SDS011;9582;52.018;6.306;2024-03-29T12:29:49;1.02;;;0.90;;
18899;SDS011;9582;52.018;6.306;2024-03-29T12:32:18;1.23;;;0.90;;
18899;SDS011;9582;52.018;6.306;2024-03-29T12:34:45;0.93;;;0.90;;
18899;SDS011;9582;52.018;6.306;2024-03-29T12:37:13;2.00;;;1.20;;
18899;SDS011;9582;52.018;6.306;2024-03-29T12:39:40;1.75;;;0.95;;
18899;SDS011;9582;52.018;6.306;2024-03-29T12:42:07;1.02;;;0.90;;
18899;SDS011;9582;52.018;6.306;2024-03-29T12:44:34;0.80;;;0.80;;
18899;SDS011;9582;52.018;6.306;2024-03-29T12:47:01;0.80;;;0.80;;
18899;SDS011;9582;52.018;6.306;2024-03-29T12:49:29;1.40;;;1.00;;
18899;SDS011;9582;52.018;6.306;2024-03-29T12:51:56;1.77;;;0.75;;
18899;SDS011;9582;52.018;6.306;2024-03-29T12:54:24;1.33;;;0.88;;
18899;SDS011;9582;52.018;6.306;2024-03-29T12:56:52;1.75;;;0.77;;
18899;SDS011;9582;52.018;6.306;2024-03-29T12:59:19;1.63;;;0.70;;
18899;SDS011;9582;52.018;6.306;2024-03-29T13:01:46;1.08;;;0.90;;
18899;SDS011;9582;52.018;6.306;2024-03-29T13:04:12;1.77;;;0.80;;
18899;SDS011;9582;52.018;6.306;2024-03-29T13:06:39;0.80;;;0.80;;
18899;SDS011;9582;52.018;6.306;2024-03-29T13:09:06;2.00;;;0.90;;
18899;SDS011;9582;52.018;6.306;2024-03-29T13:11:34;1.00;;;0.60;;
18899;SDS011;9582;52.018;6.306;2024-03-29T13:14:01;0.68;;;0.50;;
18899;SDS011;9582;52.018;6.306;2024-03-29T13:16:27;2.15;;;0.68;;
18899;SDS011;9582;52.018;6.306;2024-03-29T13:18:54;1.60;;;0.90;;
18899;SDS011;9582;52.018;6.306;2024-03-29T13:21:21;1.40;;;0.77;;
18899;SDS011;9582;52.018;6.306;2024-03-29T13:23:47;0.68;;;0.47;;
18899;SDS011;9582;52.018;6.306;2024-03-29T13:26:14;0.77;;;0.57;;
18899;SDS011;9582;52.018;6.306;2024-03-29T13:28:42;2.15;;;0.60;;
18899;SDS011;9582;52.018;6.306;2024-03-29T13:31:09;0.65;;;0.60;;
18899;SDS011;9582;52.018;6.306;2024-03-29T13:33:36;1.65;;;0.65;;
18899;SDS011;9582;52.018;6.306;2024-03-29T13:36:03;0.73;;;0.70;;
18899;SDS011;9582;52.018;6.306;2024-03-29T13:38:30;1.73;;;0.77;;
18899;SDS011;9582;52.018;6.306;2024-03-29T13:40:57;0.55;;;0.55;;
18899;SDS011;9582;52.018;6.306;2024-03-29T13:43:23;0.70;;;0.70;;
18899;SDS011;9582;52.018;6.306;2024-03-29T13:45:51;0.52;;;0.50;;
18899;SDS011;9582;52.018;6.306;2024-03-29T13:48:18;0.95;;;0.68;;
18899;SDS011;9582;52.018;6.306;2024-03-29T13:50:45;0.95;;;0.77;;
18899;SDS011;9582;52.018;6.306;2024-03-29T13:53:11;1.15;;;0.70;;
18899;SDS011;9582;52.018;6.306;2024-03-29T13:55:38;1.80;;;1.38;;
18899;SDS011;9582;52.018;6.306;2024-03-29T13:58:06;1.33;;;1.10;;
18899;SDS011;9582;52.018;6.306;2024-03-29T14:00:32;0.80;;;0.80;;
18899;SDS011;9582;52.018;6.306;2024-03-29T14:03:00;2.67;;;0.68;;
18899;SDS011;9582;52.018;6.306;2024-03-29T14:05:27;1.05;;;0.50;;
18899;SDS011;9582;52.018;6.306;2024-03-29T14:07:54;0.75;;;0.60;;
18899;SDS011;9582;52.018;6.306;2024-03-29T14:10:20;1.52;;;0.50;;
18899;SDS011;9582;52.018;6.306;2024-03-29T14:12:47;0.90;;;0.40;;
18899;SDS011;9582;52.018;6.306;2024-03-29T14:15:17;0.55;;;0.55;;
18899;SDS011;9582;52.018;6.306;2024-03-29T14:17:43;0.65;;;0.50;;
18899;SDS011;9582;52.018;6.306;2024-03-29T14:20:11;0.40;;;0.40;;
18899;SDS011;9582;52.018;6.306;2024-03-29T14:22:38;1.33;;;0.52;;
18899;SDS011;9582;52.018;6.306;2024-03-29T14:25:05;1.85;;;0.60;;
18899;SDS011;9582;52.018;6.306;2024-03-29T14:27:35;1.85;;;0.68;;
18899;SDS011;9582;52.018;6.306;2024-03-29T14:30:11;0.40;;;0.40;;
18899;SDS011;9582;52.018;6.306;2024-03-29T14:32:39;1.20;;;0.50;;
18899;SDS011;9582;52.018;6.306;2024-03-29T14:35:07;0.60;;;0.60;;
18899;SDS011;9582;52.018;6.306;2024-03-29T14:37:37;0.68;;;0.45;;
18899;SDS011;9582;52.018;6.306;2024-03-29T14:40:04;0.47;;;0.40;;
18899;SDS011;9582;52.018;6.306;2024-03-29T14:42:31;1.80;;;0.50;;
18899;SDS011;9582;52.018;6.306;2024-03-29T14:44:58;15.50;;;3.88;;
18899;SDS011;9582;52.018;6.306;2024-03-29T14:47:24;16.20;;;3.65;;
18899;SDS011;9582;52.018;6.306;2024-03-29T14:49:51;20.02;;;5.32;;
18899;SDS011;9582;52.018;6.306;2024-03-29T14:52:18;11.55;;;3.20;;
18899;SDS011;9582;52.018;6.306;2024-03-29T14:54:46;5.18;;;1.65;;
18899;SDS011;9582;52.018;6.306;2024-03-29T14:57:13;13.70;;;4.25;;
18899;SDS011;9582;52.018;6.306;2024-03-29T14:59:40;16.50;;;4.93;;
18899;SDS011;9582;52.018;6.306;2024-03-29T15:02:06;9.25;;;2.88;;